Time;durP1;ratioP1;P1;durP2;ratioP2;P2;SDS_P1;SDS_P2;PMS_P1;PMS_P2;Temp;Humidity;BMP_temperature;BMP_pressure;BME280_temperature;BME280_humidity;BME280_pressure;Samples;Min_cycle;Max_cycle;Signal;HPM_P1;HPM_P2
2024/02/02 00:02:07;;;;;;;1999.90;999.90;;;5.70;99.90;;;;;;5014937;28;20180;-68
2024/02/02 00:04:32;;;;;;;1999.90;999.90;;;5.80;99.90;;;;;;5017129;28;20579;-67
2024/02/02 00:06:58;;;;;;;1999.90;999.90;;;5.80;99.90;;;;;;5016677;28;20165;-68
2024/02/02 00:09:23;;;;;;;1999.90;999.90;;;5.60;99.90;;;;;;5014824;28;20169;-66
2024/02/02 00:11:49;;;;;;;1999.90;999.90;;;5.40;1.00;;;;;;5015485;28;20169;-68
2024/02/02 00:14:18;;;;;;;1999.90;999.90;;;5.40;1.00;;;;;;5015890;28;20611;-66
2024/02/02 00:16:44;;;;;;;1999.90;999.90;;;5.40;1.00;;;;;;5014546;28;20180;-66
2024/02/02 00:19:09;;;;;;;1999.90;999.90;;;4.70;1.00;;;;;;5014322;28;20416;-66
2024/02/02 00:21:35;;;;;;;1999.90;999.90;;;5.40;1.00;;;;;;5014525;28;20223;-67
2024/02/02 00:24:00;;;;;;;1999.90;999.90;;;5.40;1.00;;;;;;5015008;28;20205;-66
2024/02/02 00:26:26;;;;;;;1999.90;999.90;;;5.50;1.00;;;;;;5016439;28;20640;-66
2024/02/02 00:28:52;;;;;;;1999.90;999.90;;;5.70;99.90;;;;;;5014091;28;20176;-66
2024/02/02 00:31:21;;;;;;;1999.90;999.90;;;5.80;99.90;;;;;;5014977;28;20408;-68
2024/02/02 00:33:48;;;;;;;1999.90;999.90;;;5.80;99.90;;;;;;5014449;28;20307;-66
2024/02/02 00:36:13;;;;;;;1999.90;999.90;;;5.90;99.90;;;;;;5014244;28;20776;-67
2024/02/02 00:38:39;;;;;;;1999.90;999.90;;;5.70;99.90;;;;;;5013985;28;20430;-67
2024/02/02 00:41:04;;;;;;;1999.90;999.90;;;5.70;99.90;;;;;;5014191;28;20260;-67
2024/02/02 00:43:30;;;;;;;1999.90;999.90;;;5.80;99.90;;;;;;5014640;28;20193;-66
2024/02/02 00:45:56;;;;;;;1999.90;999.90;;;5.70;99.90;;;;;;5014026;28;20169;-66
2024/02/02 00:48:21;;;;;;;1999.90;999.90;;;5.70;99.90;;;;;;5013866;28;20169;-67
2024/02/02 00:50:47;;;;;;;1999.90;999.90;;;5.90;99.90;;;;;;5014071;28;20169;-67
2024/02/02 00:53:13;;;;;;;1999.90;999.90;;;;;;;;;;5013898;28;20165;-66
2024/02/02 00:55:38;;;;;;;1999.90;999.90;;;5.70;99.90;;;;;;5013954;28;20716;-67
2024/02/02 00:58:04;;;;;;;1999.90;999.90;;;5.80;99.90;;;;;;5012930;28;20452;-66
2024/02/02 01:00:30;;;;;;;1999.90;999.90;;;6.10;1.00;;;;;;5013781;28;20179;-67
2024/02/02 01:02:55;;;;;;;1999.90;999.90;;;5.90;1.00;;;;;;5013835;28;20674;-67
2024/02/02 01:05:21;;;;;;;1999.90;999.90;;;6.10;1.00;;;;;;5013631;28;20204;-67
2024/02/02 01:07:48;;;;;;;1999.90;999.90;;;5.90;1.00;;;;;;5013471;28;20176;-67
2024/02/02 01:10:16;;;;;;;1999.90;999.90;;;5.80;99.90;;;;;;5013642;28;20172;-67
2024/02/02 01:12:43;;;;;;;1999.90;999.90;;;5.80;99.90;;;;;;5013501;28;20895;-66
2024/02/02 01:15:10;;;;;;;1999.90;999.90;;;5.80;99.90;;;;;;5013368;28;20519;-66
2024/02/02 01:17:36;;;;;;;1999.90;999.90;;;5.70;99.90;;;;;;5013245;28;20404;-66
2024/02/02 01:20:03;;;;;;;1999.90;999.90;;;5.70;99.90;;;;;;5014369;28;20424;-67
2024/02/02 01:22:30;;;;;;;1999.90;999.90;;;5.70;99.90;;;;;;5013526;28;20907;-67
2024/02/02 01:24:56;;;;;;;1999.90;999.90;;;5.70;99.90;;;;;;5013142;28;20824;-67
2024/02/02 01:27:21;;;;;;;1999.90;999.90;;;6.00;99.90;;;;;;5013024;28;20415;-66
2024/02/02 01:29:47;;;;;;;1999.90;999.90;;;5.80;99.90;;;;;;5013302;28;20587;-66
2024/02/02 01:32:13;;;;;;;1999.90;999.90;;;5.70;99.90;;;;;;5013457;28;20547;-67
2024/02/02 01:34:38;;;;;;;1999.90;999.90;;;6.10;99.90;;;;;;5014610;28;20204;-67
2024/02/02 01:37:04;;;;;;;1999.90;999.90;;;5.90;99.90;;;;;;5014132;28;20592;-67
2024/02/02 01:39:30;;;;;;;1999.90;999.90;;;5.80;1.00;;;;;;5013662;28;20553;-67
2024/02/02 01:41:56;;;;;;;1999.90;999.90;;;5.80;1.00;;;;;;5013067;28;20466;-67
2024/02/02 01:44:22;;;;;;;1999.90;999.90;;;5.90;1.00;;;;;;5012888;28;20886;-67
2024/02/02 01:46:47;;;;;;;1999.90;999.90;;;6.10;1.00;;;;;;5013223;28;20174;-68
2024/02/02 01:49:13;;;;;;;1999.90;999.90;;;6.00;99.90;;;;;;5013660;28;20167;-66
2024/02/02 01:51:39;;;;;;;1999.90;999.90;;;6.00;99.90;;;;;;5014220;28;20223;-68
2024/02/02 01:54:06;;;;;;;1999.90;999.90;;;6.30;99.90;;;;;;5012806;28;20560;-66
2024/02/02 01:56:32;;;;;;;1999.90;999.90;;;6.30;99.90;;;;;;5012779;28;20419;-66
2024/02/02 01:58:58;;;;;;;1999.90;999.90;;;6.10;99.90;;;;;;5012472;28;21101;-66
2024/02/02 02:01:23;;;;;;;1999.90;999.90;;;6.10;99.90;;;;;;5012745;28;20446;-66
2024/02/02 02:03:49;;;;;;;1999.90;999.90;;;6.20;99.90;;;;;;5012424;28;20216;-66
2024/02/02 02:06:15;;;;;;;1999.90;999.90;;;6.00;99.90;;;;;;5012646;28;20613;-66
2024/02/02 02:08:41;;;;;;;1999.90;999.90;;;6.20;99.90;;;;;;5013688;28;20173;-67
2024/02/02 02:11:08;;;;;;;1999.90;999.90;;;6.10;99.90;;;;;;5031984;28;20511;-67
2024/02/02 02:13:34;;;;;;;1999.90;999.90;;;6.10;94.90;;;;;;5032180;28;20437;-66
2024/02/02 02:15:59;;;;;;;1999.90;999.90;;;6.10;72.80;;;;;;5032181;28;20494;-67
2024/02/02 02:18:25;;;;;;;1999.90;999.90;;;6.20;99.90;;;;;;5031868;28;20426;-67
2024/02/02 02:20:55;;;;;;;1999.90;999.90;;;6.20;99.90;;;;;;5032257;28;20183;-67
2024/02/02 02:23:21;;;;;;;1999.90;999.90;;;6.00;1.00;;;;;;5031847;28;20192;-67
2024/02/02 02:25:47;;;;;;;1999.90;999.90;;;6.10;99.90;;;;;;5032013;28;20902;-67
2024/02/02 02:28:12;;;;;;;1999.90;999.90;;;6.10;99.90;;;;;;5031736;28;20406;-67
2024/02/02 02:30:38;;;;;;;1999.90;999.90;;;6.00;99.90;;;;;;5032057;28;20665;-66
2024/02/02 02:33:05;;;;;;;1999.90;999.90;;;6.20;99.90;;;;;;5032005;28;20433;-67
2024/02/02 02:35:31;;;;;;;1999.90;999.90;;;6.20;99.90;;;;;;5031900;28;20222;-67
2024/02/02 02:37:57;;;;;;;1999.90;999.90;;;6.20;99.90;;;;;;5031662;28;20413;-67
2024/02/02 02:40:22;;;;;;;1999.90;999.90;;;6.30;99.90;;;;;;5032002;28;20841;-66
2024/02/02 02:42:50;;;;;;;1999.90;999.90;;;6.30;99.90;;;;;;5031752;28;20168;-66
2024/02/02 02:45:16;;;;;;;1999.90;999.90;;;6.30;90.10;;;;;;5031793;28;20189;-66
2024/02/02 02:47:42;;;;;;;1999.90;999.90;;;6.20;99.90;;;;;;5031610;28;20407;-66
2024/02/02 02:50:09;;;;;;;1999.90;999.90;;;6.20;99.90;;;;;;5031811;28;20875;-67
2024/02/02 02:52:35;;;;;;;1999.90;999.90;;;6.20;99.90;;;;;;5031806;28;20175;-66
2024/02/02 02:55:01;;;;;;;1999.90;999.90;;;6.30;99.90;;;;;;5031680;28;20779;-66
2024/02/02 02:57:26;;;;;;;1999.90;999.90;;;6.30;99.90;;;;;;5032933;28;20403;-68
2024/02/02 02:59:52;;;;;;;1999.90;999.90;;;6.30;99.90;;;;;;5031905;28;20411;-67
2024/02/02 03:02:18;;;;;;;1999.90;999.90;;;6.40;99.90;;;;;;5031677;28;20168;-66
2024/02/02 03:04:44;;;;;;;1999.90;999.90;;;6.40;99.90;;;;;;5031699;28;20706;-66
2024/02/02 03:07:10;;;;;;;1999.90;999.90;;;6.20;99.90;;;;;;5031384;28;20403;-67
2024/02/02 03:09:36;;;;;;;1999.90;999.90;;;6.20;99.90;;;;;;5031629;28;20952;-67
2024/02/02 03:12:03;;;;;;;1999.90;999.90;;;6.40;99.90;;;;;;5031601;28;20256;-67
2024/02/02 03:14:29;;;;;;;1999.90;999.90;;;6.10;99.90;;;;;;5031498;28;20423;-67
2024/02/02 03:16:55;;;;;;;1999.90;999.90;;;6.10;99.90;;;;;;5031290;28;20775;-66
2024/02/02 03:19:21;;;;;;;1999.90;999.90;;;6.20;99.90;;;;;;5031572;28;20180;-66
2024/02/02 03:21:46;;;;;;;1999.90;999.90;;;6.20;99.90;;;;;;5035603;28;20262;-67
2024/02/02 03:24:12;;;;;;;1999.90;999.90;;;6.20;99.90;;;;;;5035592;28;20212;-66
2024/02/02 03:26:37;;;;;;;1999.90;999.90;;;6.20;99.90;;;;;;5035291;28;20168;-67
2024/02/02 03:29:03;;;;;;;1999.90;999.90;;;6.20;99.90;;;;;;5035063;28;20171;-66
2024/02/02 03:31:30;;;;;;;1999.90;999.90;;;6.20;99.90;;;;;;5035311;28;20177;-66
2024/02/02 03:33:57;;;;;;;1999.90;999.90;;;6.20;99.90;;;;;;5036881;28;20196;-66
2024/02/02 03:36:23;;;;;;;1999.90;999.90;;;6.20;99.90;;;;;;5037890;28;20442;-68
2024/02/02 03:38:48;;;;;;;1999.90;999.90;;;6.20;99.90;;;;;;5035491;28;20419;-66
2024/02/02 03:41:15;;;;;;;1999.90;999.90;;;6.30;99.90;;;;;;5035024;28;20311;-66
2024/02/02 03:43:40;;;;;;;1999.90;999.90;;;6.30;94.50;;;;;;5034855;28;20208;-67
2024/02/02 03:46:06;;;;;;;1999.90;999.90;;;6.30;90.90;;;;;;5034959;28;20414;-66
2024/02/02 03:48:31;;;;;;;1999.90;999.90;;;6.40;1.00;;;;;;5034732;28;20178;-66
2024/02/02 03:50:57;;;;;;;1999.90;999.90;;;6.20;43.50;;;;;;5034826;28;20168;-66
2024/02/02 03:53:23;;;;;;;1999.90;999.90;;;6.30;99.90;;;;;;5034817;28;20172;-67
2024/02/02 03:55:48;;;;;;;1999.90;999.90;;;6.30;99.90;;;;;;5035702;28;20187;-67
2024/02/02 03:58:14;;;;;;;1999.90;999.90;;;6.30;99.90;;;;;;5036242;28;20184;-67
2024/02/02 04:00:40;;;;;;;1999.90;999.90;;;6.20;37.10;;;;;;5034751;28;20191;-67
2024/02/02 04:03:06;;;;;;;1999.90;999.90;;;6.40;1.00;;;;;;5036265;28;20226;-67
2024/02/02 04:05:32;;;;;;;1999.90;999.90;;;6.30;1.00;;;;;;5036185;28;20454;-68
2024/02/02 04:07:57;;;;;;;1999.90;999.90;;;6.30;1.00;;;;;;5036916;28;20411;-67
2024/02/02 04:10:23;;;;;;;1999.90;999.90;;;6.30;99.90;;;;;;5037081;28;20171;-68
2024/02/02 04:12:49;;;;;;;1999.90;999.90;;;6.30;1.00;;;;;;5035140;28;20176;-67
2024/02/02 04:15:14;;;;;;;1999.90;999.90;;;6.30;1.00;;;;;;5036488;28;20203;-66
2024/02/02 04:17:40;;;;;;;1999.90;999.90;;;6.30;1.00;;;;;;5035812;28;20179;-67
2024/02/02 04:20:06;;;;;;;1999.90;999.90;;;6.20;1.00;;;;;;5034332;28;20176;-66
2024/02/02 04:22:31;;;;;;;1999.90;999.90;;;6.30;1.00;;;;;;5034286;28;20171;-66
2024/02/02 04:24:57;;;;;;;1999.90;999.90;;;6.20;1.00;;;;;;5034119;28;20537;-67
2024/02/02 04:27:23;;;;;;;1999.90;999.90;;;6.40;1.00;;;;;;5033938;28;20164;-67
2024/02/02 04:29:48;;;;;;;1999.90;999.90;;;6.20;1.00;;;;;;5034218;28;20176;-67
2024/02/02 04:32:14;;;;;;;1999.90;999.90;;;6.20;1.00;;;;;;5034870;28;20349;-68
2024/02/02 04:34:39;;;;;;;1999.90;999.90;;;6.30;1.00;;;;;;5034099;28;20199;-66
2024/02/02 04:37:05;;;;;;;1999.90;999.90;;;6.40;1.00;;;;;;5033812;28;20533;-67
2024/02/02 04:39:31;;;;;;;1999.90;999.90;;;6.30;1.00;;;;;;5033938;28;20199;-67
2024/02/02 04:41:56;;;;;;;1999.90;999.90;;;6.30;1.00;;;;;;5033976;28;20191;-67
2024/02/02 04:44:22;;;;;;;1999.90;999.90;;;6.30;99.90;;;;;;5033785;28;20203;-66
2024/02/02 04:46:48;;;;;;;1999.90;999.90;;;6.30;99.90;;;;;;5033844;28;20627;-67
2024/02/02 04:49:13;;;;;;;1999.90;999.90;;;6.40;99.90;;;;;;5034438;28;20255;-67
2024/02/02 04:51:39;;;;;;;1999.90;999.90;;;6.20;1.00;;;;;;5036101;28;20177;-67
2024/02/02 04:54:04;;;;;;;1999.90;999.90;;;6.20;1.00;;;;;;5033982;28;20184;-68
2024/02/02 04:56:30;;;;;;;1999.90;999.90;;;6.20;1.00;;;;;;5036178;28;20554;-68
2024/02/02 04:58:56;;;;;;;1999.90;999.90;;;6.10;39.80;;;;;;5035487;28;20172;-67
2024/02/02 05:01:21;;;;;;;1999.90;999.90;;;6.20;2.70;;;;;;5036214;28;20691;-66
2024/02/02 05:03:47;;;;;;;1999.90;999.90;;;6.10;13.20;;;;;;5036110;28;20777;-68
2024/02/02 05:06:16;;;;;;;1999.90;999.90;;;6.20;91.60;;;;;;5036317;28;20204;-67
2024/02/02 05:08:45;;;;;;;1999.90;999.90;;;6.20;99.90;;;;;;5033287;28;20164;-66
2024/02/02 05:11:13;;;;;;;1999.90;999.90;;;6.20;99.90;;;;;;5033361;28;20486;-66
2024/02/02 05:13:39;;;;;;;1999.90;999.90;;;6.00;63.20;;;;;;5035124;28;20423;-68
2024/02/02 05:16:05;;;;;;;1999.90;999.90;;;6.00;40.90;;;;;;5036916;28;20415;-68
2024/02/02 05:18:31;;;;;;;1999.90;999.90;;;6.00;1.00;;;;;;5036741;28;20169;-68
2024/02/02 05:20:56;;;;;;;1999.90;999.90;;;6.10;1.00;;;;;;5036964;28;20456;-67
2024/02/02 05:23:24;;;;;;;1999.90;999.90;;;6.20;99.90;;;;;;5036546;28;20192;-68
2024/02/02 05:25:49;;;;;;;1999.90;999.90;;;6.00;1.00;;;;;;5036083;28;20688;-67
2024/02/02 05:28:15;;;;;;;1999.90;999.90;;;6.00;1.00;;;;;;5034924;28;20402;-68
2024/02/02 05:30:40;;;;;;;1999.90;999.90;;;6.00;1.00;;;;;;5033404;28;20172;-67
2024/02/02 05:33:06;;;;;;;1999.90;999.90;;;6.00;1.00;;;;;;5032957;28;20172;-67
2024/02/02 05:35:32;;;;;;;1999.90;999.90;;;6.00;99.90;;;;;;5032941;28;20700;-68
2024/02/02 05:37:58;;;;;;;1999.90;999.90;;;6.20;99.90;;;;;;5032637;28;20256;-67
2024/02/02 05:40:24;;;;;;;1999.90;999.90;;;6.10;99.90;;;;;;5032856;28;20172;-66
2024/02/02 05:42:50;;;;;;;1999.90;999.90;;;6.20;99.90;;;;;;5032534;28;20415;-66
2024/02/02 05:45:15;;;;;;;1999.90;999.90;;;6.20;99.90;;;;;;5033822;28;20191;-67
2024/02/02 05:47:41;;;;;;;1999.90;999.90;;;6.00;99.90;;;;;;5032450;28;20247;-67
2024/02/02 05:50:07;;;;;;;1999.90;999.90;;;6.10;99.90;;;;;;5032704;28;20218;-67
2024/02/02 05:52:32;;;;;;;1999.90;999.90;;;6.00;99.90;;;;;;5032532;28;20247;-67
2024/02/02 05:54:58;;;;;;;1999.90;999.90;;;5.90;99.90;;;;;;5032471;28;20565;-67
2024/02/02 05:57:23;;;;;;;1999.90;999.90;;;6.00;99.90;;;;;;5032394;28;20636;-67
2024/02/02 05:59:49;;;;;;;1999.90;999.90;;;6.20;99.90;;;;;;5032491;28;20176;-66
2024/02/02 06:02:15;;;;;;;1999.90;999.90;;;6.10;99.90;;;;;;5032354;28;20643;-67
2024/02/02 06:04:40;;;;;;;1999.90;999.90;;;5.90;1.00;;;;;;5032135;28;20208;-67
2024/02/02 06:07:06;;;;;;;1999.90;999.90;;;6.10;1.00;;;;;;5032104;28;20242;-67
2024/02/02 06:09:32;;;;;;;1999.90;999.90;;;6.20;99.90;;;;;;5034761;28;20176;-68
2024/02/02 06:11:57;;;;;;;1999.90;999.90;;;6.10;99.90;;;;;;5035773;28;20169;-67
2024/02/02 06:14:25;;;;;;;1999.90;999.90;;;6.10;99.90;;;;;;5035468;28;20552;-68
2024/02/02 06:16:51;;;;;;;1999.90;999.90;;;6.10;75.20;;;;;;5036275;28;20172;-66
2024/02/02 06:19:16;;;;;;;1999.90;999.90;;;6.20;1.00;;;;;;5032353;28;20409;-67
2024/02/02 06:21:42;;;;;;;1999.90;999.90;;;6.30;99.90;;;;;;5032097;28;20168;-67
2024/02/02 06:24:08;;;;;;;1999.90;999.90;;;6.20;99.90;;;;;;5031975;28;20242;-67
2024/02/02 06:26:36;;;;;;;1999.90;999.90;;;6.20;55.50;;;;;;5032166;28;20173;-66
2024/02/02 06:29:03;;;;;;;1999.90;999.90;;;6.20;1.00;;;;;;5033213;28;20181;-68
2024/02/02 06:31:28;;;;;;;1999.90;999.90;;;6.30;1.00;;;;;;5034415;28;20426;-67
2024/02/02 06:33:54;;;;;;;1999.90;999.90;;;6.30;99.90;;;;;;5031932;28;20766;-67
2024/02/02 06:36:24;;;;;;;1999.90;999.90;;;6.20;99.90;;;;;;5031921;28;20168;-67
2024/02/02 06:38:50;;;;;;;1999.90;999.90;;;6.20;99.90;;;;;;5031702;28;20169;-66
2024/02/02 06:41:16;;;;;;;1999.90;999.90;;;6.20;27.10;;;;;;5031918;28;20411;-66
2024/02/02 06:43:42;;;;;;;1999.90;999.90;;;6.20;1.00;;;;;;5031651;28;20842;-67
2024/02/02 06:46:07;;;;;;;1999.90;999.90;;;6.20;99.90;;;;;;5031863;28;20691;-67
2024/02/02 06:48:34;;;;;;;1999.90;999.90;;;6.20;99.90;;;;;;5031561;28;20172;-67
2024/02/02 06:50:59;;;;;;;1999.90;999.90;;;6.20;99.90;;;;;;5031922;28;20518;-67
2024/02/02 06:53:28;;;;;;;1999.90;999.90;;;6.30;1.00;;;;;;5031633;28;20429;-67
2024/02/02 06:55:54;;;;;;;1999.90;999.90;;;6.20;1.00;;;;;;5033415;28;20598;-67
2024/02/02 06:58:37;;;;;;;1999.90;999.90;;;6.40;1.00;;;;;;5035622;28;20446;-67
2024/02/02 07:01:03;;;;;;;1999.90;999.90;;;6.30;99.90;;;;;;5034606;28;20176;-66
2024/02/02 07:03:32;;;;;;;1999.90;999.90;;;6.10;99.90;;;;;;5036893;28;20443;-67
2024/02/02 07:05:58;;;;;;;1999.90;999.90;;;6.10;99.90;;;;;;5038740;28;20407;-66
2024/02/02 07:08:24;;;;;;;1999.90;999.90;;;6.30;99.90;;;;;;5035409;28;20402;-67
2024/02/02 07:11:22;;;;;;;1999.90;999.90;;;6.40;99.90;;;;;;5035600;28;20460;-66
2024/02/02 07:13:52;;;;;;;1999.90;999.90;;;6.20;99.90;;;;;;5035488;28;20195;-66
2024/02/02 07:16:29;;;;;;;1999.90;999.90;;;6.20;99.90;;;;;;5035734;28;20894;-67
2024/02/02 07:18:55;;;;;;;1999.90;999.90;;;6.40;43.00;;;;;;5035289;28;20399;-66
2024/02/02 07:21:30;;;;;;;1999.90;999.90;;;6.30;1.00;;;;;;5035305;28;20403;-66
2024/02/02 07:23:56;;;;;;;1999.90;999.90;;;6.20;99.90;;;;;;5035444;28;20458;-66
2024/02/02 07:26:30;;;;;;;1999.90;999.90;;;6.30;1.00;;;;;;5035497;28;20502;-66
2024/02/02 07:28:57;;;;;;;1999.90;999.90;;;6.20;1.00;;;;;;5035082;28;20457;-66
2024/02/02 07:31:38;;;;;;;1999.90;999.90;;;6.20;99.90;;;;;;5035294;28;20480;-66
2024/02/02 07:34:47;;;;;;;1999.90;999.90;;;6.30;99.90;;;;;;5035218;28;20792;-66
2024/02/02 07:37:38;;;;;;;1999.90;999.90;;;6.20;99.90;;;;;;5013041;28;20423;-66
2024/02/02 07:40:30;;;;;;;1999.90;999.90;;;6.30;99.90;;;;;;5035086;28;20494;-66
2024/02/02 07:42:58;;;;;;;1999.90;999.90;;;6.30;89.30;;;;;;5038005;28;20792;-67
2024/02/02 07:45:24;;;;;;;1999.90;999.90;;;6.30;98.40;;;;;;5037083;28;20423;-67
2024/02/02 07:47:51;;;;;;;1999.90;999.90;;;6.30;1.00;;;;;;5034711;28;20789;-67
2024/02/02 07:50:17;;;;;;;1999.90;999.90;;;6.40;1.00;;;;;;5034946;28;20670;-67
2024/02/02 07:52:42;;;;;;;1999.90;999.90;;;6.40;1.00;;;;;;5034743;28;20391;-67
2024/02/02 07:55:08;;;;;;;1999.90;999.90;;;6.50;1.00;;;;;;5034794;28;20423;-67
2024/02/02 07:57:34;;;;;;;1999.90;999.90;;;6.50;1.00;;;;;;5034559;28;20718;-66
2024/02/02 07:59:59;;;;;;;1999.90;999.90;;;6.50;1.00;;;;;;5034811;28;20165;-66
2024/02/02 08:02:25;;;;;;;1999.90;999.90;;;6.50;99.90;;;;;;5034638;28;20172;-67
2024/02/02 08:04:50;;;;;;;1999.90;999.90;;;6.60;99.90;;;;;;5036637;28;20576;-66
2024/02/02 08:07:16;;;;;;;1999.90;999.90;;;6.60;99.90;;;;;;5036514;28;20168;-66
2024/02/02 08:09:42;;;;;;;1999.90;999.90;;;6.70;99.90;;;;;;5034552;28;20164;-67
2024/02/02 08:12:08;;;;;;;1999.90;999.90;;;6.70;99.90;;;;;;5034482;28;20647;-67
2024/02/02 08:14:33;;;;;;;1999.90;999.90;;;6.80;99.90;;;;;;5034481;28;20270;-67
2024/02/02 08:16:59;;;;;;;1999.90;999.90;;;6.90;99.90;;;;;;5034136;28;20461;-67
2024/02/02 08:19:25;;;;;;;1999.90;999.90;;;6.90;99.90;;;;;;5036793;28;20175;-66
2024/02/02 08:21:54;;;;;;;1999.90;999.90;;;6.90;99.90;;;;;;5036085;28;20164;-67
2024/02/02 08:24:20;;;;;;;1999.90;999.90;;;7.00;99.90;;;;;;5034129;28;20828;-66
2024/02/02 08:26:46;;;;;;;1999.90;999.90;;;7.10;26.00;;;;;;5034252;28;20407;-66
2024/02/02 08:29:11;;;;;;;1999.90;999.90;;;7.20;11.40;;;;;;5034064;28;20543;-66
2024/02/02 08:31:37;;;;;;;1999.90;999.90;;;7.20;1.00;;;;;;5034145;28;20188;-66
2024/02/02 08:34:02;;;;;;;1999.90;999.90;;;7.20;1.00;;;;;;5034013;28;20189;-66
2024/02/02 08:36:29;;;;;;;1999.90;999.90;;;7.20;39.40;;;;;;5034042;28;20650;-66
2024/02/02 08:38:54;;;;;;;1999.90;999.90;;;7.20;1.00;;;;;;5033777;28;20165;-66
2024/02/02 08:41:20;;;;;;;1999.90;999.90;;;7.80;1.00;;;;;;5034022;28;20758;-67
2024/02/02 08:43:47;;;;;;;1999.90;999.90;;;7.30;1.00;;;;;;5033906;28;20269;-67
2024/02/02 08:46:19;;;;;;;1999.90;999.90;;;7.30;1.00;;;;;;5033916;28;20243;-67
2024/02/02 08:48:49;;;;;;;1999.90;999.90;;;7.30;1.00;;;;;;5033495;28;20476;-66
2024/02/02 08:51:21;;;;;;;1999.90;999.90;;;7.30;1.00;;;;;;5033955;28;20510;-68
2024/02/02 08:53:47;;;;;;;1999.90;999.90;;;7.20;1.00;;;;;;5033606;28;20481;-66
2024/02/02 08:56:14;;;;;;;1999.90;999.90;;;7.30;1.00;;;;;;5033611;28;20411;-65
2024/02/02 08:58:41;;;;;;;1999.90;999.90;;;7.30;1.00;;;;;;5033301;28;20413;-67
2024/02/02 09:01:22;;;;;;;1999.90;999.90;;;7.30;1.00;;;;;;5033489;28;20423;-66
2024/02/02 09:03:48;;;;;;;1999.90;999.90;;;7.30;1.00;;;;;;5033214;28;20616;-66
2024/02/02 09:06:26;;;;;;;1999.90;999.90;;;7.40;1.00;;;;;;5033531;28;20491;-67
2024/02/02 09:08:51;;;;;;;1999.90;999.90;;;7.40;10.40;;;;;;5032122;28;20161;-70
2024/02/02 09:11:22;;;;;;;1999.90;999.90;;;7.40;1.00;;;;;;5012276;28;20412;-67
2024/02/02 09:13:52;;;;;;;1999.90;999.90;;;7.50;8.30;;;;;;5013480;28;20546;-66
2024/02/02 09:16:19;;;;;;;1999.90;999.90;;;7.60;1.00;;;;;;5013442;28;20448;-66
2024/02/02 09:18:54;;;;;;;1999.90;999.90;;;7.60;1.00;;;;;;5012576;28;20412;-66
2024/02/02 09:21:25;;;;;;;1999.90;999.90;;;7.70;1.00;;;;;;5013380;28;20419;-66
2024/02/02 09:23:51;;;;;;;1999.90;999.90;;;7.70;1.00;;;;;;5009451;28;20451;-66
2024/02/02 09:26:37;;;;;;;1999.90;999.90;;;7.80;1.00;;;;;;5012407;28;20466;-67
2024/02/02 09:29:03;;;;;;;1999.90;999.90;;;7.80;1.00;;;;;;5012218;28;20182;-67
2024/02/02 09:31:35;;;;;;;1999.90;999.90;;;7.80;1.00;;;;;;5013215;28;20824;-67
2024/02/02 09:34:06;;;;;;;1999.90;999.90;;;7.90;12.40;;;;;;5012930;28;20196;-67
2024/02/02 09:36:32;;;;;;;1999.90;999.90;;;7.90;1.00;;;;;;5012550;28;20963;-66
2024/02/02 09:39:09;;;;;;;1999.90;999.90;;;8.00;1.00;;;;;;5012308;28;20439;-66
2024/02/02 09:41:56;;;;;;;1999.90;999.90;;;8.00;1.00;;;;;;5013092;28;20415;-66
2024/02/02 09:44:28;;;;;;;1999.90;999.90;;;8.10;1.00;;;;;;5012220;28;20458;-66
2024/02/02 09:46:56;;;;;;;1999.90;999.90;;;8.20;1.00;;;;;;5012139;28;20420;-66
2024/02/02 09:49:57;;;;;;;1999.90;999.90;;;8.20;1.00;;;;;;5012725;28;21109;-66
2024/02/02 09:52:44;;;;;;;1999.90;999.90;;;8.30;1.00;;;;;;5012343;28;20397;-67
2024/02/02 09:55:44;;;;;;;1999.90;999.90;;;8.40;1.00;;;;;;5012582;28;20420;-66
2024/02/02 09:58:37;;;;;;;1999.90;999.90;;;8.30;1.00;;;;;;5012171;28;20421;-66
2024/02/02 10:01:14;;;;;;;1999.90;999.90;;;8.30;1.00;;;;;;5012784;28;20405;-66
2024/02/02 10:04:07;;;;;;;1999.90;999.90;;;8.40;1.00;;;;;;5012352;28;20531;-66
2024/02/02 10:07:03;;;;;;;1999.90;999.90;;;8.40;1.00;;;;;;5012271;28;20407;-67
2024/02/02 10:09:35;;;;;;;1999.90;999.90;;;8.40;34.30;;;;;;5012283;28;20412;-67
2024/02/02 10:12:14;;;;;;;1999.90;999.90;;;8.60;83.50;;;;;;5013818;28;20403;-68
2024/02/02 10:14:46;;;;;;;1999.90;999.90;;;8.60;1.00;;;;;;5013330;28;20425;-67
2024/02/02 10:17:40;;;;;;;1999.90;999.90;;;8.60;1.00;;;;;;5012548;28;20405;-67
2024/02/02 10:20:12;;;;;;;1999.90;999.90;;;8.70;1.00;;;;;;5012377;28;21003;-67
2024/02/02 10:23:16;;;;;;;1999.90;999.90;;;8.70;1.00;;;;;;5012356;28;20683;-69
2024/02/02 10:26:10;;;;;;;1999.90;999.90;;;8.70;25.00;;;;;;5015946;28;20418;-69
2024/02/02 10:29:12;;;;;;;1999.90;999.90;;;8.80;35.60;;;;;;5011297;28;20437;-67
2024/02/02 10:32:02;;;;;;;1999.90;999.90;;;8.80;18.10;;;;;;5011192;28;20431;-66
2024/02/02 10:34:56;;;;;;;1999.90;999.90;;;8.80;64.60;;;;;;5012070;28;20426;-66
2024/02/02 10:37:22;;;;;;;1999.90;999.90;;;8.90;99.90;;;;;;5009982;28;20780;-66
2024/02/02 10:39:54;;;;;;;1999.90;999.90;;;9.10;99.90;;;;;;5012093;28;20447;-67
2024/02/02 10:42:29;;;;;;;1999.90;999.90;;;9.00;99.90;;;;;;5011969;28;20484;-67
2024/02/02 10:45:11;;;;;;;1999.90;999.90;;;9.10;99.90;;;;;;5011486;28;20511;-67
2024/02/02 10:48:00;;;;;;;1999.90;999.90;;;9.20;99.90;;;;;;5011316;28;20393;-67
2024/02/02 10:50:40;;;;;;;1999.90;999.90;;;9.20;99.90;;;;;;5011650;28;20412;-67
2024/02/02 10:53:33;;;;;;;1999.90;999.90;;;9.30;99.90;;;;;;5011920;28;20429;-67
2024/02/02 10:56:17;;;;;;;1999.90;999.90;;;9.30;99.90;;;;;;5011715;28;20468;-67
2024/02/02 10:59:09;;;;;;;1999.90;999.90;;;9.20;99.90;;;;;;5010938;28;20457;-66
2024/02/02 11:01:46;;;;;;;1999.90;999.90;;;9.30;99.90;;;;;;5011485;28;20414;-66
2024/02/02 11:04:42;;;;;;;1999.90;999.90;;;9.30;99.90;;;;;;5011480;28;20469;-67
2024/02/02 11:07:32;;;;;;;1999.90;999.90;;;9.40;1.00;;;;;;5010774;28;20410;-68
2024/02/02 11:10:03;;;;;;;1999.90;999.90;;;9.40;99.90;;;;;;5011837;28;20451;-67
2024/02/02 11:12:40;;;;;;;1999.90;999.90;;;9.50;1.00;;;;;;5011602;28;20437;-67
2024/02/02 11:15:24;;;;;;;1999.90;999.90;;;9.60;99.90;;;;;;5011620;28;20522;-67
2024/02/02 11:18:11;;;;;;;1999.90;999.90;;;9.80;99.90;;;;;;5011191;28;20409;-67
2024/02/02 11:21:14;;;;;;;1999.90;999.90;;;9.90;99.90;;;;;;5011383;28;20863;-67
2024/02/02 11:24:02;;;;;;;1999.90;999.90;;;10.00;99.90;;;;;;5011392;28;20877;-66
2024/02/02 11:26:50;;;;;;;1999.90;999.90;;;10.00;99.90;;;;;;5011485;28;20401;-66
2024/02/02 11:29:19;;;;;;;1999.90;999.90;;;10.10;99.90;;;;;;5010423;28;20503;-66
2024/02/02 11:31:44;;;;;;;1999.90;999.90;;;10.60;99.90;;;;;;5011621;28;20409;-66
2024/02/02 11:34:40;;;;;;;1999.90;999.90;;;10.10;99.90;;;;;;5011391;28;20441;-66
2024/02/02 11:37:32;;;;;;;1999.90;999.90;;;10.20;99.90;;;;;;5010645;28;20176;-66
2024/02/02 11:40:08;;;;;;;1999.90;999.90;;;10.40;99.90;;;;;;5011615;28;20497;-66
2024/02/02 11:42:37;;;;;;;1999.90;999.90;;;10.60;99.90;;;;;;5013518;28;20886;-66
2024/02/02 11:45:06;;;;;;;1999.90;999.90;;;10.90;99.90;;;;;;5016059;28;20473;-68
2024/02/02 11:47:41;;;;;;;1999.90;999.90;;;11.20;1.00;;;;;;5014587;28;20399;-67
2024/02/02 11:50:09;;;;;;;1999.90;999.90;;;11.60;1.00;;;;;;5015382;28;20775;-68
2024/02/02 11:52:41;;;;;;;1999.90;999.90;;;11.50;1.00;;;;;;5016064;28;20411;-68
2024/02/02 11:55:20;;;;;;;1999.90;999.90;;;11.50;1.00;;;;;;5016191;28;20851;-67
2024/02/02 11:57:50;;;;;;;1999.90;999.90;;;11.40;1.00;;;;;;5015514;28;20419;-66
2024/02/02 12:00:38;;;;;;;1999.90;999.90;;;11.40;1.00;;;;;;5015766;28;20422;-68
2024/02/02 12:03:27;;;;;;;1999.90;999.90;;;11.40;1.00;;;;;;5015506;28;20918;-67
2024/02/02 12:06:11;;;;;;;1999.90;999.90;;;11.40;1.00;;;;;;5015070;28;20506;-68
2024/02/02 12:09:00;;;;;;;1999.90;999.90;;;11.60;1.00;;;;;;5015098;28;20407;-68
2024/02/02 12:11:36;;;;;;;1999.90;999.90;;;11.60;1.00;;;;;;5015930;28;20488;-68
2024/02/02 12:14:06;;;;;;;1999.90;999.90;;;11.90;1.00;;;;;;5015275;28;20419;-67
2024/02/02 12:16:32;;;;;;;1999.90;999.90;;;12.20;1.00;;;;;;5015507;28;20911;-68
2024/02/02 12:18:58;;;;;;;1999.90;999.90;;;12.30;1.00;;;;;;5014149;28;20444;-67
2024/02/02 12:21:23;;;;;;;1999.90;999.90;;;12.30;1.00;;;;;;5014070;28;20637;-67
2024/02/02 12:23:49;;;;;;;1999.90;999.90;;;12.30;99.90;;;;;;5014353;28;20574;-67
2024/02/02 12:26:15;;;;;;;1999.90;999.90;;;12.00;1.00;;;;;;5014501;28;20179;-68